sensor_id;sensor_type;location;lat;lon;timestamp;P1;durP1;ratioP1;P2;durP2;ratioP2
52866;SDS011;38739;53.324;6.862;2023-03-01T00:00:37;38.75;;;21.17;;
52866;SDS011;38739;53.324;6.862;2023-03-01T00:03:03;37.15;;;19.77;;
52866;SDS011;38739;53.324;6.862;2023-03-01T00:05:31;49.97;;;23.77;;
52866;SDS011;38739;53.324;6.862;2023-03-01T00:07:57;38.55;;;20.60;;
52866;SDS011;38739;53.324;6.862;2023-03-01T00:10:23;38.85;;;21.42;;
52866;SDS011;38739;53.324;6.862;2023-03-01T00:12:49;36.67;;;20.85;;
52866;SDS011;38739;53.324;6.862;2023-03-01T00:15:14;35.97;;;19.77;;
52866;SDS011;38739;53.324;6.862;2023-03-01T00:17:40;37.28;;;20.98;;
52866;SDS011;38739;53.324;6.862;2023-03-01T00:20:06;34.65;;;19.85;;
52866;SDS011;38739;53.324;6.862;2023-03-01T00:22:36;39.00;;;19.83;;
52866;SDS011;38739;53.324;6.862;2023-03-01T00:25:02;37.35;;;20.67;;
52866;SDS011;38739;53.324;6.862;2023-03-01T00:27:28;37.78;;;20.20;;
52866;SDS011;38739;53.324;6.862;2023-03-01T00:29:54;37.85;;;20.10;;
52866;SDS011;38739;53.324;6.862;2023-03-01T00:32:19;38.70;;;20.48;;
52866;SDS011;38739;53.324;6.862;2023-03-01T00:34:45;33.97;;;19.20;;
52866;SDS011;38739;53.324;6.862;2023-03-01T00:37:22;38.15;;;20.88;;
52866;SDS011;38739;53.324;6.862;2023-03-01T00:39:48;40.15;;;20.73;;
52866;SDS011;38739;53.324;6.862;2023-03-01T00:42:15;42.38;;;20.83;;
52866;SDS011;38739;53.324;6.862;2023-03-01T00:44:41;36.88;;;19.73;;
52866;SDS011;38739;53.324;6.862;2023-03-01T00:47:07;41.75;;;21.52;;
52866;SDS011;38739;53.324;6.862;2023-03-01T00:49:33;40.63;;;21.17;;
52866;SDS011;38739;53.324;6.862;2023-03-01T00:51:59;36.35;;;20.23;;
52866;SDS011;38739;53.324;6.862;2023-03-01T00:54:24;34.80;;;18.88;;
52866;SDS011;38739;53.324;6.862;2023-03-01T00:56:50;32.45;;;18.23;;
52866;SDS011;38739;53.324;6.862;2023-03-01T00:59:16;32.20;;;18.05;;
52866;SDS011;38739;53.324;6.862;2023-03-01T01:01:41;29.80;;;17.33;;
52866;SDS011;38739;53.324;6.862;2023-03-01T01:04:08;33.78;;;18.10;;
52866;SDS011;38739;53.324;6.862;2023-03-01T01:06:43;30.35;;;17.40;;
52866;SDS011;38739;53.324;6.862;2023-03-01T01:09:14;32.70;;;17.00;;
52866;SDS011;38739;53.324;6.862;2023-03-01T01:11:46;30.95;;;17.80;;
52866;SDS011;38739;53.324;6.862;2023-03-01T01:14:13;35.05;;;18.70;;
52866;SDS011;38739;53.324;6.862;2023-03-01T01:16:39;36.97;;;20.17;;
52866;SDS011;38739;53.324;6.862;2023-03-01T01:19:05;34.28;;;19.25;;
52866;SDS011;38739;53.324;6.862;2023-03-01T01:21:34;37.53;;;20.10;;
52866;SDS011;38739;53.324;6.862;2023-03-01T01:24:02;34.38;;;18.90;;
52866;SDS011;38739;53.324;6.862;2023-03-01T01:26:29;36.35;;;18.83;;
52866;SDS011;38739;53.324;6.862;2023-03-01T01:28:57;34.70;;;19.08;;
52866;SDS011;38739;53.324;6.862;2023-03-01T01:31:24;31.98;;;17.33;;
52866;SDS011;38739;53.324;6.862;2023-03-01T01:33:55;35.53;;;19.17;;
52866;SDS011;38739;53.324;6.862;2023-03-01T01:36:21;32.55;;;17.52;;
52866;SDS011;38739;53.324;6.862;2023-03-01T01:38:48;28.80;;;16.20;;
52866;SDS011;38739;53.324;6.862;2023-03-01T01:41:14;29.77;;;16.58;;
52866;SDS011;38739;53.324;6.862;2023-03-01T01:43:44;35.40;;;19.05;;
52866;SDS011;38739;53.324;6.862;2023-03-01T01:46:32;34.95;;;18.00;;
52866;SDS011;38739;53.324;6.862;2023-03-01T01:49:03;34.58;;;18.60;;
52866;SDS011;38739;53.324;6.862;2023-03-01T01:51:37;38.97;;;18.73;;
52866;SDS011;38739;53.324;6.862;2023-03-01T01:54:12;32.50;;;17.30;;
52866;SDS011;38739;53.324;6.862;2023-03-01T01:56:42;30.25;;;16.95;;
52866;SDS011;38739;53.324;6.862;2023-03-01T01:59:14;31.08;;;16.90;;
52866;SDS011;38739;53.324;6.862;2023-03-01T02:01:40;33.80;;;17.17;;
52866;SDS011;38739;53.324;6.862;2023-03-01T02:04:06;28.05;;;15.63;;
52866;SDS011;38739;53.324;6.862;2023-03-01T02:06:33;26.05;;;14.63;;
52866;SDS011;38739;53.324;6.862;2023-03-01T02:09:15;24.55;;;14.30;;
52866;SDS011;38739;53.324;6.862;2023-03-01T02:11:43;24.13;;;13.18;;
52866;SDS011;38739;53.324;6.862;2023-03-01T02:14:12;22.00;;;12.82;;
52866;SDS011;38739;53.324;6.862;2023-03-01T02:16:39;26.73;;;14.05;;
52866;SDS011;38739;53.324;6.862;2023-03-01T02:19:06;28.77;;;15.10;;
52866;SDS011;38739;53.324;6.862;2023-03-01T02:26:56;32.50;;;16.17;;
52866;SDS011;38739;53.324;6.862;2023-03-01T02:29:26;34.10;;;15.75;;
52866;SDS011;38739;53.324;6.862;2023-03-01T02:31:53;35.95;;;16.63;;
52866;SDS011;38739;53.324;6.862;2023-03-01T02:34:22;41.38;;;18.75;;
52866;SDS011;38739;53.324;6.862;2023-03-01T02:36:54;48.97;;;21.77;;
52866;SDS011;38739;53.324;6.862;2023-03-01T02:39:28;47.03;;;20.77;;
52866;SDS011;38739;53.324;6.862;2023-03-01T02:42:01;50.90;;;20.48;;
52866;SDS011;38739;53.324;6.862;2023-03-01T02:44:31;48.58;;;20.13;;
52866;SDS011;38739;53.324;6.862;2023-03-01T02:46:57;50.22;;;19.63;;
52866;SDS011;38739;53.324;6.862;2023-03-01T02:49:28;52.75;;;21.15;;
52866;SDS011;38739;53.324;6.862;2023-03-01T02:54:32;45.47;;;19.98;;
52866;SDS011;38739;53.324;6.862;2023-03-01T02:57:02;39.10;;;18.17;;
52866;SDS011;38739;53.324;6.862;2023-03-01T02:59:29;37.08;;;17.60;;
52866;SDS011;38739;53.324;6.862;2023-03-01T03:02:04;37.70;;;18.70;;
52866;SDS011;38739;53.324;6.862;2023-03-01T03:05:07;39.85;;;17.73;;
52866;SDS011;38739;53.324;6.862;2023-03-01T03:07:35;37.13;;;18.10;;
52866;SDS011;38739;53.324;6.862;2023-03-01T03:10:03;44.95;;;20.48;;
52866;SDS011;38739;53.324;6.862;2023-03-01T03:12:31;44.00;;;20.10;;
52866;SDS011;38739;53.324;6.862;2023-03-01T03:14:57;46.67;;;20.52;;
52866;SDS011;38739;53.324;6.862;2023-03-01T03:17:23;44.55;;;19.73;;
52866;SDS011;38739;53.324;6.862;2023-03-01T03:19:48;49.53;;;22.27;;
52866;SDS011;38739;53.324;6.862;2023-03-01T03:22:14;56.28;;;23.00;;
52866;SDS011;38739;53.324;6.862;2023-03-01T03:24:40;49.95;;;22.52;;
52866;SDS011;38739;53.324;6.862;2023-03-01T03:27:06;48.75;;;21.67;;
52866;SDS011;38739;53.324;6.862;2023-03-01T03:29:32;48.42;;;22.00;;
52866;SDS011;38739;53.324;6.862;2023-03-01T03:31:58;49.95;;;22.50;;
52866;SDS011;38739;53.324;6.862;2023-03-01T03:34:24;45.25;;;21.35;;
52866;SDS011;38739;53.324;6.862;2023-03-01T03:36:53;45.95;;;21.05;;
52866;SDS011;38739;53.324;6.862;2023-03-01T03:39:24;45.97;;;20.45;;
52866;SDS011;38739;53.324;6.862;2023-03-01T03:41:52;41.30;;;19.50;;
52866;SDS011;38739;53.324;6.862;2023-03-01T03:44:18;43.83;;;20.13;;
52866;SDS011;38739;53.324;6.862;2023-03-01T03:46:44;44.08;;;19.98;;
52866;SDS011;38739;53.324;6.862;2023-03-01T03:49:10;41.70;;;19.02;;
52866;SDS011;38739;53.324;6.862;2023-03-01T03:51:35;42.42;;;19.83;;
52866;SDS011;38739;53.324;6.862;2023-03-01T03:54:04;39.65;;;18.83;;
52866;SDS011;38739;53.324;6.862;2023-03-01T03:56:29;36.33;;;17.48;;
52866;SDS011;38739;53.324;6.862;2023-03-01T03:58:55;33.33;;;16.50;;
52866;SDS011;38739;53.324;6.862;2023-03-01T04:01:21;28.85;;;14.15;;
52866;SDS011;38739;53.324;6.862;2023-03-01T04:03:46;28.02;;;14.38;;
52866;SDS011;38739;53.324;6.862;2023-03-01T04:06:14;22.55;;;13.32;;
52866;SDS011;38739;53.324;6.862;2023-03-01T04:08:40;26.48;;;14.00;;
52866;SDS011;38739;53.324;6.862;2023-03-01T04:11:06;29.40;;;14.32;;
52866;SDS011;38739;53.324;6.862;2023-03-01T04:13:51;25.38;;;13.90;;
52866;SDS011;38739;53.324;6.862;2023-03-01T04:16:18;22.38;;;13.68;;
52866;SDS011;38739;53.324;6.862;2023-03-01T04:18:44;24.27;;;13.70;;
52866;SDS011;38739;53.324;6.862;2023-03-01T04:21:10;23.42;;;13.50;;
52866;SDS011;38739;53.324;6.862;2023-03-01T04:23:37;29.08;;;15.00;;
52866;SDS011;38739;53.324;6.862;2023-03-01T04:26:03;33.28;;;17.15;;
52866;SDS011;38739;53.324;6.862;2023-03-01T04:28:33;28.73;;;16.80;;
52866;SDS011;38739;53.324;6.862;2023-03-01T04:31:14;28.35;;;16.08;;
52866;SDS011;38739;53.324;6.862;2023-03-01T04:33:43;28.98;;;15.43;;
52866;SDS011;38739;53.324;6.862;2023-03-01T04:36:21;24.10;;;14.32;;
52866;SDS011;38739;53.324;6.862;2023-03-01T04:38:48;25.13;;;13.70;;
52866;SDS011;38739;53.324;6.862;2023-03-01T04:41:16;24.05;;;14.13;;
52866;SDS011;38739;53.324;6.862;2023-03-01T04:43:43;25.00;;;14.15;;
52866;SDS011;38739;53.324;6.862;2023-03-01T04:46:14;22.30;;;12.45;;
52866;SDS011;38739;53.324;6.862;2023-03-01T04:48:42;16.15;;;10.85;;
52866;SDS011;38739;53.324;6.862;2023-03-01T04:51:10;13.50;;;9.95;;
52866;SDS011;38739;53.324;6.862;2023-03-01T04:53:38;12.90;;;9.55;;
52866;SDS011;38739;53.324;6.862;2023-03-01T04:56:05;15.57;;;10.63;;
52866;SDS011;38739;53.324;6.862;2023-03-01T04:58:31;13.65;;;9.80;;
52866;SDS011;38739;53.324;6.862;2023-03-01T05:01:00;16.25;;;10.63;;
52866;SDS011;38739;53.324;6.862;2023-03-01T05:03:25;17.05;;;11.50;;
52866;SDS011;38739;53.324;6.862;2023-03-01T05:05:53;16.67;;;11.45;;
52866;SDS011;38739;53.324;6.862;2023-03-01T05:08:19;13.95;;;10.10;;
52866;SDS011;38739;53.324;6.862;2023-03-01T05:10:49;14.90;;;10.48;;
52866;SDS011;38739;53.324;6.862;2023-03-01T05:13:17;15.30;;;10.75;;
52866;SDS011;38739;53.324;6.862;2023-03-01T05:15:47;17.55;;;11.85;;
52866;SDS011;38739;53.324;6.862;2023-03-01T05:18:23;19.75;;;11.40;;
52866;SDS011;38739;53.324;6.862;2023-03-01T05:20:53;16.95;;;11.55;;
52866;SDS011;38739;53.324;6.862;2023-03-01T05:23:21;18.33;;;12.38;;
52866;SDS011;38739;53.324;6.862;2023-03-01T05:25:48;19.65;;;12.18;;
52866;SDS011;38739;53.324;6.862;2023-03-01T05:28:14;18.08;;;12.52;;
52866;SDS011;38739;53.324;6.862;2023-03-01T05:30:40;18.40;;;12.02;;
52866;SDS011;38739;53.324;6.862;2023-03-01T05:33:06;19.98;;;12.23;;
52866;SDS011;38739;53.324;6.862;2023-03-01T05:35:39;20.75;;;13.68;;
52866;SDS011;38739;53.324;6.862;2023-03-01T05:38:11;22.38;;;13.57;;
52866;SDS011;38739;53.324;6.862;2023-03-01T05:40:41;22.33;;;13.38;;
52866;SDS011;38739;53.324;6.862;2023-03-01T05:43:08;22.83;;;13.85;;
52866;SDS011;38739;53.324;6.862;2023-03-01T05:45:36;25.48;;;14.27;;
52866;SDS011;38739;53.324;6.862;2023-03-01T05:48:03;25.05;;;15.18;;
52866;SDS011;38739;53.324;6.862;2023-03-01T05:50:32;23.83;;;15.05;;
52866;SDS011;38739;53.324;6.862;2023-03-01T05:53:04;23.75;;;14.40;;
52866;SDS011;38739;53.324;6.862;2023-03-01T05:55:41;27.25;;;15.05;;
52866;SDS011;38739;53.324;6.862;2023-03-01T05:58:10;21.98;;;13.13;;
52866;SDS011;38739;53.324;6.862;2023-03-01T06:00:39;23.00;;;13.27;;
52866;SDS011;38739;53.324;6.862;2023-03-01T06:03:09;21.17;;;13.93;;
52866;SDS011;38739;53.324;6.862;2023-03-01T06:05:37;22.60;;;13.98;;
52866;SDS011;38739;53.324;6.862;2023-03-01T06:08:04;23.88;;;13.82;;
52866;SDS011;38739;53.324;6.862;2023-03-01T06:10:30;27.83;;;13.85;;
52866;SDS011;38739;53.324;6.862;2023-03-01T06:12:56;24.23;;;14.15;;
52866;SDS011;38739;53.324;6.862;2023-03-01T06:15:22;23.25;;;14.27;;
52866;SDS011;38739;53.324;6.862;2023-03-01T06:17:48;25.98;;;15.00;;
52866;SDS011;38739;53.324;6.862;2023-03-01T06:20:15;24.35;;;14.65;;
52866;SDS011;38739;53.324;6.862;2023-03-01T06:22:42;22.92;;;14.25;;
52866;SDS011;38739;53.324;6.862;2023-03-01T06:25:08;19.73;;;12.70;;
52866;SDS011;38739;53.324;6.862;2023-03-01T06:27:35;20.08;;;12.77;;
52866;SDS011;38739;53.324;6.862;2023-03-01T06:30:01;22.02;;;13.13;;
52866;SDS011;38739;53.324;6.862;2023-03-01T06:32:30;22.80;;;13.43;;
52866;SDS011;38739;53.324;6.862;2023-03-01T06:34:56;20.40;;;13.77;;
52866;SDS011;38739;53.324;6.862;2023-03-01T06:37:24;22.38;;;13.95;;
52866;SDS011;38739;53.324;6.862;2023-03-01T06:39:50;21.63;;;12.95;;
52866;SDS011;38739;53.324;6.862;2023-03-01T06:42:16;26.08;;;15.70;;
52866;SDS011;38739;53.324;6.862;2023-03-01T06:44:41;24.52;;;15.23;;
52866;SDS011;38739;53.324;6.862;2023-03-01T06:47:07;22.85;;;14.30;;
52866;SDS011;38739;53.324;6.862;2023-03-01T06:49:33;25.08;;;15.25;;
52866;SDS011;38739;53.324;6.862;2023-03-01T06:51:58;24.67;;;14.90;;
52866;SDS011;38739;53.324;6.862;2023-03-01T06:54:24;25.20;;;15.32;;
52866;SDS011;38739;53.324;6.862;2023-03-01T06:56:50;25.65;;;15.23;;
52866;SDS011;38739;53.324;6.862;2023-03-01T06:59:16;25.92;;;15.50;;
52866;SDS011;38739;53.324;6.862;2023-03-01T07:01:45;27.98;;;15.93;;
52866;SDS011;38739;53.324;6.862;2023-03-01T07:04:12;31.48;;;17.48;;
52866;SDS011;38739;53.324;6.862;2023-03-01T07:06:38;26.95;;;16.35;;
52866;SDS011;38739;53.324;6.862;2023-03-01T07:09:06;27.08;;;16.17;;
52866;SDS011;38739;53.324;6.862;2023-03-01T07:11:32;30.40;;;16.67;;
52866;SDS011;38739;53.324;6.862;2023-03-01T07:13:58;26.77;;;16.13;;
52866;SDS011;38739;53.324;6.862;2023-03-01T07:16:25;31.23;;;17.35;;
52866;SDS011;38739;53.324;6.862;2023-03-01T07:18:50;30.05;;;16.73;;
52866;SDS011;38739;53.324;6.862;2023-03-01T07:21:16;31.70;;;18.38;;
52866;SDS011;38739;53.324;6.862;2023-03-01T07:23:42;28.45;;;17.48;;
52866;SDS011;38739;53.324;6.862;2023-03-01T07:26:07;34.92;;;18.95;;
52866;SDS011;38739;53.324;6.862;2023-03-01T07:28:33;32.90;;;18.88;;
52866;SDS011;38739;53.324;6.862;2023-03-01T07:31:04;34.22;;;19.02;;
52866;SDS011;38739;53.324;6.862;2023-03-01T07:33:33;33.58;;;18.90;;
52866;SDS011;38739;53.324;6.862;2023-03-01T07:36:00;39.80;;;21.23;;
52866;SDS011;38739;53.324;6.862;2023-03-01T07:38:27;40.83;;;22.55;;
52866;SDS011;38739;53.324;6.862;2023-03-01T07:40:52;41.28;;;22.27;;
52866;SDS011;38739;53.324;6.862;2023-03-01T07:43:18;40.67;;;22.42;;
52866;SDS011;38739;53.324;6.862;2023-03-01T07:45:45;42.05;;;21.88;;
52866;SDS011;38739;53.324;6.862;2023-03-01T07:48:11;44.67;;;21.60;;
52866;SDS011;38739;53.324;6.862;2023-03-01T07:50:37;42.30;;;23.00;;
52866;SDS011;38739;53.324;6.862;2023-03-01T07:53:02;43.97;;;23.83;;
52866;SDS011;38739;53.324;6.862;2023-03-01T07:55:28;42.15;;;23.48;;
52866;SDS011;38739;53.324;6.862;2023-03-01T07:57:54;47.03;;;25.38;;
52866;SDS011;38739;53.324;6.862;2023-03-01T08:00:20;57.08;;;28.52;;
52866;SDS011;38739;53.324;6.862;2023-03-01T08:02:45;57.20;;;28.33;;
52866;SDS011;38739;53.324;6.862;2023-03-01T08:05:11;56.40;;;27.77;;
52866;SDS011;38739;53.324;6.862;2023-03-01T08:07:54;54.95;;;27.85;;
52866;SDS011;38739;53.324;6.862;2023-03-01T08:10:20;60.28;;;30.30;;
52866;SDS011;38739;53.324;6.862;2023-03-01T08:12:46;56.35;;;29.30;;
52866;SDS011;38739;53.324;6.862;2023-03-01T08:15:12;63.90;;;32.92;;
52866;SDS011;38739;53.324;6.862;2023-03-01T08:17:37;60.65;;;31.67;;
52866;SDS011;38739;53.324;6.862;2023-03-01T08:20:03;85.60;;;42.17;;
52866;SDS011;38739;53.324;6.862;2023-03-01T08:22:31;80.57;;;39.20;;
52866;SDS011;38739;53.324;6.862;2023-03-01T08:24:57;80.05;;;39.28;;
52866;SDS011;38739;53.324;6.862;2023-03-01T08:27:23;66.50;;;33.58;;
52866;SDS011;38739;53.324;6.862;2023-03-01T08:29:48;57.38;;;29.85;;
52866;SDS011;38739;53.324;6.862;2023-03-01T08:32:17;58.22;;;30.23;;
52866;SDS011;38739;53.324;6.862;2023-03-01T08:34:48;54.80;;;28.48;;
52866;SDS011;38739;53.324;6.862;2023-03-01T08:37:17;61.60;;;31.52;;
52866;SDS011;38739;53.324;6.862;2023-03-01T08:39:46;63.05;;;30.77;;
52866;SDS011;38739;53.324;6.862;2023-03-01T08:42:34;60.00;;;32.30;;
52866;SDS011;38739;53.324;6.862;2023-03-01T08:44:59;69.82;;;33.88;;
52866;SDS011;38739;53.324;6.862;2023-03-01T08:47:28;77.63;;;39.92;;
52866;SDS011;38739;53.324;6.862;2023-03-01T08:49:59;91.10;;;43.30;;
52866;SDS011;38739;53.324;6.862;2023-03-01T08:52:25;94.03;;;44.70;;
52866;SDS011;38739;53.324;6.862;2023-03-01T08:54:51;100.85;;;48.53;;
52866;SDS011;38739;53.324;6.862;2023-03-01T08:57:16;107.43;;;50.08;;
52866;SDS011;38739;53.324;6.862;2023-03-01T08:59:42;104.68;;;49.38;;
52866;SDS011;38739;53.324;6.862;2023-03-01T09:02:10;98.40;;;47.92;;
52866;SDS011;38739;53.324;6.862;2023-03-01T09:04:39;93.90;;;47.05;;
52866;SDS011;38739;53.324;6.862;2023-03-01T09:07:05;92.70;;;47.60;;
52866;SDS011;38739;53.324;6.862;2023-03-01T09:09:31;92.28;;;47.85;;
52866;SDS011;38739;53.324;6.862;2023-03-01T09:12:00;91.30;;;46.97;;
52866;SDS011;38739;53.324;6.862;2023-03-01T09:14:26;89.45;;;46.95;;
52866;SDS011;38739;53.324;6.862;2023-03-01T09:16:52;92.90;;;47.60;;
52866;SDS011;38739;53.324;6.862;2023-03-01T09:19:18;91.15;;;47.40;;
52866;SDS011;38739;53.324;6.862;2023-03-01T09:21:43;83.10;;;44.65;;
52866;SDS011;38739;53.324;6.862;2023-03-01T09:24:17;81.88;;;44.03;;
52866;SDS011;38739;53.324;6.862;2023-03-01T09:26:44;77.43;;;44.63;;
52866;SDS011;38739;53.324;6.862;2023-03-01T09:29:11;71.07;;;42.35;;
52866;SDS011;38739;53.324;6.862;2023-03-01T09:31:37;65.70;;;39.00;;
52866;SDS011;38739;53.324;6.862;2023-03-01T09:34:03;69.43;;;40.47;;
52866;SDS011;38739;53.324;6.862;2023-03-01T09:36:31;67.15;;;39.42;;
52866;SDS011;38739;53.324;6.862;2023-03-01T09:39:03;64.00;;;37.85;;
52866;SDS011;38739;53.324;6.862;2023-03-01T09:47:22;48.05;;;30.30;;
52866;SDS011;38739;53.324;6.862;2023-03-01T09:55:21;41.53;;;26.63;;
52866;SDS011;38739;53.324;6.862;2023-03-01T10:01:02;38.22;;;25.23;;
52866;SDS011;38739;53.324;6.862;2023-03-01T10:03:41;39.63;;;25.63;;
52866;SDS011;38739;53.324;6.862;2023-03-01T10:06:14;38.35;;;25.45;;
52866;SDS011;38739;53.324;6.862;2023-03-01T10:08:54;39.35;;;25.88;;
52866;SDS011;38739;53.324;6.862;2023-03-01T10:11:31;37.10;;;24.40;;
52866;SDS011;38739;53.324;6.862;2023-03-01T10:16:51;36.40;;;24.08;;
52866;SDS011;38739;53.324;6.862;2023-03-01T10:19:24;32.10;;;22.33;;
52866;SDS011;38739;53.324;6.862;2023-03-01T10:21:56;32.53;;;22.92;;
52866;SDS011;38739;53.324;6.862;2023-03-01T10:24:27;30.13;;;20.88;;
52866;SDS011;38739;53.324;6.862;2023-03-01T10:27:01;30.27;;;19.45;;
52866;SDS011;38739;53.324;6.862;2023-03-01T10:32:42;25.33;;;16.45;;
52866;SDS011;38739;53.324;6.862;2023-03-01T10:35:16;21.63;;;15.70;;
52866;SDS011;38739;53.324;6.862;2023-03-01T10:38:03;25.02;;;18.02;;
52866;SDS011;38739;53.324;6.862;2023-03-01T10:43:39;26.67;;;18.73;;
52866;SDS011;38739;53.324;6.862;2023-03-01T10:49:25;25.67;;;17.65;;
52866;SDS011;38739;53.324;6.862;2023-03-01T10:51:48;26.42;;;17.73;;
52866;SDS011;38739;53.324;6.862;2023-03-01T10:54:20;22.63;;;16.30;;
52866;SDS011;38739;53.324;6.862;2023-03-01T10:56:51;22.50;;;15.68;;
52866;SDS011;38739;53.324;6.862;2023-03-01T10:59:42;20.02;;;14.65;;
52866;SDS011;38739;53.324;6.862;2023-03-01T11:07:51;17.83;;;12.88;;
52866;SDS011;38739;53.324;6.862;2023-03-01T11:10:29;16.83;;;12.80;;
52866;SDS011;38739;53.324;6.862;2023-03-01T11:13:05;16.23;;;11.77;;
52866;SDS011;38739;53.324;6.862;2023-03-01T11:15:31;16.35;;;12.25;;
52866;SDS011;38739;53.324;6.862;2023-03-01T11:17:57;14.23;;;11.00;;
52866;SDS011;38739;53.324;6.862;2023-03-01T11:20:30;16.05;;;12.25;;
52866;SDS011;38739;53.324;6.862;2023-03-01T11:23:07;16.15;;;12.07;;
52866;SDS011;38739;53.324;6.862;2023-03-01T11:25:47;17.52;;;12.80;;
52866;SDS011;38739;53.324;6.862;2023-03-01T11:28:20;17.55;;;13.40;;
52866;SDS011;38739;53.324;6.862;2023-03-01T11:30:58;17.85;;;13.95;;
52866;SDS011;38739;53.324;6.862;2023-03-01T11:38:53;17.08;;;14.63;;
52866;SDS011;38739;53.324;6.862;2023-03-01T11:41:21;19.35;;;13.52;;
52866;SDS011;38739;53.324;6.862;2023-03-01T11:44:03;17.08;;;13.70;;
52866;SDS011;38739;53.324;6.862;2023-03-01T11:47:04;17.02;;;13.65;;
52866;SDS011;38739;53.324;6.862;2023-03-01T11:57:24;17.60;;;13.80;;
52866;SDS011;38739;53.324;6.862;2023-03-01T12:02:57;13.93;;;12.40;;
52866;SDS011;38739;53.324;6.862;2023-03-01T12:08:39;16.13;;;12.98;;
52866;SDS011;38739;53.324;6.862;2023-03-01T12:14:02;14.88;;;12.48;;
52866;SDS011;38739;53.324;6.862;2023-03-01T12:28:39;13.05;;;11.50;;
52866;SDS011;38739;53.324;6.862;2023-03-01T12:38:33;12.32;;;10.25;;
52866;SDS011;38739;53.324;6.862;2023-03-01T12:49:41;10.43;;;9.15;;
52866;SDS011;38739;53.324;6.862;2023-03-01T12:52:21;11.05;;;9.38;;
52866;SDS011;38739;53.324;6.862;2023-03-01T12:54:59;11.70;;;10.02;;
52866;SDS011;38739;53.324;6.862;2023-03-01T12:57:33;12.13;;;8.93;;
52866;SDS011;38739;53.324;6.862;2023-03-01T13:00:17;11.68;;;9.18;;
52866;SDS011;38739;53.324;6.862;2023-03-01T13:06:29;11.98;;;9.75;;
52866;SDS011;38739;53.324;6.862;2023-03-01T13:10:56;12.52;;;10.38;;
52866;SDS011;38739;53.324;6.862;2023-03-01T13:13:27;11.35;;;8.80;;
52866;SDS011;38739;53.324;6.862;2023-03-01T13:15:57;10.90;;;8.82;;
52866;SDS011;38739;53.324;6.862;2023-03-01T13:18:41;10.35;;;9.02;;
52866;SDS011;38739;53.324;6.862;2023-03-01T13:21:09;10.38;;;8.95;;
52866;SDS011;38739;53.324;6.862;2023-03-01T13:23:39;11.73;;;8.70;;
52866;SDS011;38739;53.324;6.862;2023-03-01T13:33:46;11.43;;;9.85;;
52866;SDS011;38739;53.324;6.862;2023-03-01T13:46:51;12.68;;;10.43;;
52866;SDS011;38739;53.324;6.862;2023-03-01T13:49:21;13.88;;;11.10;;
52866;SDS011;38739;53.324;6.862;2023-03-01T13:51:53;12.63;;;10.63;;
52866;SDS011;38739;53.324;6.862;2023-03-01T13:54:30;11.40;;;10.07;;
52866;SDS011;38739;53.324;6.862;2023-03-01T13:56:58;13.55;;;10.88;;
52866;SDS011;38739;53.324;6.862;2023-03-01T13:59:26;12.82;;;11.10;;
52866;SDS011;38739;53.324;6.862;2023-03-01T14:01:56;13.13;;;11.00;;
52866;SDS011;38739;53.324;6.862;2023-03-01T14:04:25;12.90;;;10.70;;
52866;SDS011;38739;53.324;6.862;2023-03-01T14:09:45;12.32;;;11.02;;
52866;SDS011;38739;53.324;6.862;2023-03-01T14:17:43;12.85;;;10.55;;
52866;SDS011;38739;53.324;6.862;2023-03-01T14:22:44;14.27;;;11.75;;
52866;SDS011;38739;53.324;6.862;2023-03-01T14:27:42;14.32;;;12.13;;
52866;SDS011;38739;53.324;6.862;2023-03-01T14:30:17;14.73;;;11.82;;
52866;SDS011;38739;53.324;6.862;2023-03-01T14:32:56;14.93;;;11.88;;
52866;SDS011;38739;53.324;6.862;2023-03-01T14:35:25;14.25;;;12.05;;
52866;SDS011;38739;53.324;6.862;2023-03-01T14:37:55;15.93;;;12.95;;
52866;SDS011;38739;53.324;6.862;2023-03-01T14:40:26;19.02;;;13.98;;
52866;SDS011;38739;53.324;6.862;2023-03-01T14:42:55;17.05;;;13.80;;
52866;SDS011;38739;53.324;6.862;2023-03-01T14:45:24;17.08;;;13.23;;
52866;SDS011;38739;53.324;6.862;2023-03-01T14:47:51;16.55;;;13.70;;
52866;SDS011;38739;53.324;6.862;2023-03-01T14:50:26;16.42;;;14.05;;
52866;SDS011;38739;53.324;6.862;2023-03-01T14:53:05;19.45;;;14.93;;
52866;SDS011;38739;53.324;6.862;2023-03-01T14:55:41;19.38;;;14.50;;
52866;SDS011;38739;53.324;6.862;2023-03-01T14:58:11;19.15;;;14.15;;
52866;SDS011;38739;53.324;6.862;2023-03-01T15:00:38;19.38;;;14.23;;
52866;SDS011;38739;53.324;6.862;2023-03-01T15:03:14;20.93;;;14.37;;
52866;SDS011;38739;53.324;6.862;2023-03-01T15:05:56;19.48;;;14.15;;
52866;SDS011;38739;53.324;6.862;2023-03-01T15:08:24;18.75;;;14.57;;
52866;SDS011;38739;53.324;6.862;2023-03-01T15:11:27;19.35;;;15.25;;
52866;SDS011;38739;53.324;6.862;2023-03-01T15:16:54;21.33;;;16.73;;
52866;SDS011;38739;53.324;6.862;2023-03-01T15:19:21;21.05;;;16.38;;
52866;SDS011;38739;53.324;6.862;2023-03-01T15:21:54;20.52;;;16.33;;
52866;SDS011;38739;53.324;6.862;2023-03-01T15:24:24;23.20;;;16.98;;
52866;SDS011;38739;53.324;6.862;2023-03-01T15:26:59;19.80;;;16.38;;
52866;SDS011;38739;53.324;6.862;2023-03-01T15:29:32;23.13;;;16.67;;
52866;SDS011;38739;53.324;6.862;2023-03-01T15:32:20;24.33;;;19.47;;
52866;SDS011;38739;53.324;6.862;2023-03-01T15:37:47;24.52;;;17.80;;
52866;SDS011;38739;53.324;6.862;2023-03-01T15:40:17;21.60;;;16.70;;
52866;SDS011;38739;53.324;6.862;2023-03-01T15:43:00;20.02;;;15.93;;
52866;SDS011;38739;53.324;6.862;2023-03-01T15:45:28;21.80;;;16.70;;
52866;SDS011;38739;53.324;6.862;2023-03-01T15:47:56;21.25;;;16.67;;
52866;SDS011;38739;53.324;6.862;2023-03-01T15:50:30;18.73;;;15.18;;
52866;SDS011;38739;53.324;6.862;2023-03-01T15:53:01;23.55;;;16.77;;
52866;SDS011;38739;53.324;6.862;2023-03-01T15:55:31;17.70;;;14.85;;
52866;SDS011;38739;53.324;6.862;2023-03-01T15:57:59;18.52;;;14.13;;
52866;SDS011;38739;53.324;6.862;2023-03-01T16:00:27;20.33;;;16.77;;
52866;SDS011;38739;53.324;6.862;2023-03-01T16:02:53;20.98;;;15.73;;
52866;SDS011;38739;53.324;6.862;2023-03-01T16:05:21;20.92;;;16.02;;
52866;SDS011;38739;53.324;6.862;2023-03-01T16:07:49;18.25;;;15.50;;
52866;SDS011;38739;53.324;6.862;2023-03-01T16:10:19;19.30;;;15.73;;
52866;SDS011;38739;53.324;6.862;2023-03-01T16:12:46;19.45;;;15.55;;
52866;SDS011;38739;53.324;6.862;2023-03-01T16:15:33;21.10;;;16.42;;
52866;SDS011;38739;53.324;6.862;2023-03-01T16:18:07;22.17;;;15.88;;
52866;SDS011;38739;53.324;6.862;2023-03-01T16:20:35;19.25;;;15.35;;
52866;SDS011;38739;53.324;6.862;2023-03-01T16:23:01;18.60;;;14.55;;
52866;SDS011;38739;53.324;6.862;2023-03-01T16:25:28;20.35;;;14.75;;
52866;SDS011;38739;53.324;6.862;2023-03-01T16:27:55;20.50;;;15.35;;
52866;SDS011;38739;53.324;6.862;2023-03-01T16:30:23;20.05;;;15.45;;
52866;SDS011;38739;53.324;6.862;2023-03-01T16:32:49;20.40;;;14.52;;
52866;SDS011;38739;53.324;6.862;2023-03-01T16:35:16;22.58;;;15.20;;
52866;SDS011;38739;53.324;6.862;2023-03-01T16:37:44;20.48;;;15.52;;
52866;SDS011;38739;53.324;6.862;2023-03-01T16:40:17;18.50;;;14.70;;
52866;SDS011;38739;53.324;6.862;2023-03-01T16:42:54;20.25;;;15.82;;
52866;SDS011;38739;53.324;6.862;2023-03-01T16:45:33;20.73;;;14.95;;
52866;SDS011;38739;53.324;6.862;2023-03-01T16:48:05;20.50;;;15.10;;